Butia, Brazil
Current Conditions -  °F | °C
As of 7:00 AM on Saturday 29 Nov 2014 (Local Time) from SBPA Reporting Station
Clear Clear  
Wind Chill: 68°   Ceiling: Unl
Heat Index: 68°   Visibility: 6mi
Dew Point: 64°   Wind: 5mph
Humidity: 88%   Direction: 80°E
Pressure: 29.94"   Gusts: NA
Location:  30.12°S, 51.96°W
Report Text: SBPA 290900Z 08004KT CAVOK 20/18 Q1014
Loading
Personal Weather Stations






























Interactive Weather Map New forecast layout! Learn more

10-Day Weather Forecast

Advertisements
Track Severe Weather on mobile